createdAt,value
2023-05-10T00:00:52.444Z,98548.00
2023-05-10T00:02:25.926Z,98550.00
2023-05-10T00:03:59.111Z,98540.00
2023-05-10T00:05:33.963Z,98546.00
2023-05-10T00:07:06.984Z,98548.00
2023-05-10T00:08:40.195Z,98551.00
2023-05-10T00:10:13.789Z,98537.00
2023-05-10T00:11:46.980Z,98540.00
2023-05-10T00:13:20.050Z,98542.00
2023-05-10T00:14:52.270Z,98545.00
2023-05-10T00:16:25.442Z,98550.00
2023-05-10T00:17:58.786Z,98547.00
2023-05-10T00:19:32.119Z,98545.00
2023-05-10T00:21:07.425Z,98543.00
2023-05-10T00:22:40.496Z,98543.00
2023-05-10T00:24:13.932Z,98546.00
2023-05-10T00:25:47.034Z,98540.00
2023-05-10T00:27:19.224Z,98542.00
2023-05-10T00:28:52.268Z,98545.00
2023-05-10T00:30:25.219Z,98536.00
2023-05-10T00:31:58.255Z,98542.00
2023-05-10T00:33:31.481Z,98538.00
2023-05-10T00:35:04.965Z,98543.00
2023-05-10T00:36:39.424Z,98544.00
2023-05-10T00:38:13.056Z,98543.00
2023-05-10T00:39:46.142Z,98542.00
2023-05-10T00:41:19.222Z,98545.00
2023-05-10T00:42:53.224Z,98542.00
2023-05-10T00:44:26.366Z,98544.00
2023-05-10T00:45:59.958Z,98539.00
2023-05-10T00:47:34.504Z,98537.00
2023-05-10T00:49:08.848Z,98544.00
2023-05-10T00:50:42.396Z,98540.00
2023-05-10T00:52:17.585Z,98545.00
2023-05-10T00:53:52.115Z,98542.00
2023-05-10T00:55:26.561Z,98544.00
2023-05-10T00:56:59.736Z,98542.00
2023-05-10T00:58:32.145Z,98539.00
2023-05-10T01:00:09.870Z,98541.00
2023-05-10T01:01:43.594Z,98529.00
2023-05-10T01:03:17.023Z,98547.00
2023-05-10T01:04:52.803Z,98531.00
2023-05-10T01:06:26.387Z,98544.00
2023-05-10T01:08:00.941Z,98541.00
2023-05-10T01:09:34.448Z,98540.00
2023-05-10T01:11:07.853Z,98543.00
2023-05-10T01:12:46.145Z,98542.00
2023-05-10T01:14:21.575Z,98541.00
2023-05-10T01:15:55.798Z,98540.00
2023-05-10T01:17:29.577Z,98542.00
2023-05-10T01:19:03.095Z,98530.00
2023-05-10T01:20:45.106Z,98548.00
2023-05-10T01:22:48.526Z,98552.00
2023-05-10T01:24:52.733Z,98552.00
2023-05-10T01:27:16.637Z,98550.00
2023-05-10T01:29:26.714Z,98547.00
2023-05-10T01:31:24.614Z,98558.00
2023-05-10T01:33:07.173Z,98551.00
2023-05-10T01:34:55.461Z,98554.00
2023-05-10T01:36:37.002Z,98559.00
2023-05-10T01:38:18.768Z,98552.00
2023-05-10T01:40:03.401Z,98550.00
2023-05-10T01:41:47.111Z,98553.00
2023-05-10T01:43:28.530Z,98557.00
2023-05-10T01:45:15.711Z,98554.00
2023-05-10T01:46:58.549Z,98559.00
2023-05-10T01:48:33.807Z,98559.00
2023-05-10T01:50:17.515Z,98547.00
2023-05-10T01:51:55.601Z,98568.00
2023-05-10T01:53:30.671Z,98554.00
2023-05-10T01:55:07.440Z,98556.00
2023-05-10T01:56:43.997Z,98558.00
2023-05-10T01:58:23.762Z,98562.00
2023-05-10T01:59:59.523Z,98555.00
2023-05-10T02:01:33.772Z,98562.00
2023-05-10T02:03:11.314Z,98550.00
2023-05-10T02:04:48.103Z,98558.00
2023-05-10T02:06:24.006Z,98555.00
2023-05-10T02:07:59.009Z,98557.00
2023-05-10T02:09:35.332Z,98557.00
2023-05-10T02:11:11.117Z,98557.00
2023-05-10T02:12:47.994Z,98559.00
2023-05-10T02:14:25.303Z,98557.00
2023-05-10T02:16:00.355Z,98562.00
2023-05-10T02:17:33.996Z,98560.00
2023-05-10T02:19:09.409Z,98562.00
2023-05-10T02:20:47.207Z,98560.00
2023-05-10T02:22:24.202Z,98559.00
2023-05-10T02:23:59.147Z,98562.00
2023-05-10T02:25:34.853Z,98562.00
2023-05-10T02:27:10.710Z,98560.00
2023-05-10T02:28:44.477Z,98565.00
2023-05-10T02:30:19.070Z,98566.00
2023-05-10T02:31:56.087Z,98567.00
2023-05-10T02:33:32.380Z,98559.00
2023-05-10T02:35:06.990Z,98563.00
2023-05-10T02:36:43.622Z,98567.00
2023-05-10T02:38:18.140Z,98569.00
2023-05-10T02:39:53.047Z,98574.00
2023-05-10T02:41:27.875Z,98564.00
2023-05-10T02:43:02.424Z,98562.00
2023-05-10T02:44:38.518Z,98570.00
2023-05-10T02:46:11.907Z,98572.00
2023-05-10T02:47:45.387Z,98572.00
2023-05-10T02:49:17.908Z,98576.00
2023-05-10T02:50:54.922Z,98576.00
2023-05-10T02:52:38.750Z,98575.00
2023-05-10T02:54:16.624Z,98582.00
2023-05-10T02:55:57.619Z,98579.00
2023-05-10T02:57:35.707Z,98576.00
2023-05-10T02:59:08.801Z,98573.00
2023-05-10T03:00:41.105Z,98574.00
2023-05-10T03:02:16.297Z,98574.00
2023-05-10T03:03:48.624Z,98573.00
2023-05-10T03:05:22.498Z,98579.00
2023-05-10T03:06:55.730Z,98579.00
2023-05-10T03:08:31.129Z,98582.00
2023-05-10T03:10:06.438Z,98578.00
2023-05-10T03:11:54.738Z,98584.00
2023-05-10T03:13:36.841Z,98574.00
2023-05-10T03:15:19.838Z,98583.00
2023-05-10T03:17:06.112Z,98589.00
2023-05-10T03:18:45.927Z,98592.00
2023-05-10T03:20:25.593Z,98593.00
2023-05-10T03:22:10.581Z,98590.00
2023-05-10T03:23:53.165Z,98594.00
2023-05-10T03:25:26.714Z,98594.00
2023-05-10T03:27:03.828Z,98594.00
2023-05-10T03:28:38.547Z,98586.00
2023-05-10T03:30:15.094Z,98589.00
2023-05-10T03:31:47.803Z,98594.00
2023-05-10T03:33:22.031Z,98598.00
2023-05-10T03:34:55.236Z,98593.00
2023-05-10T03:36:28.406Z,98604.00
2023-05-10T03:38:01.597Z,98602.00
2023-05-10T03:39:36.145Z,98610.00
2023-05-10T03:41:10.305Z,98608.00
2023-05-10T03:42:43.506Z,98602.00
2023-05-10T03:44:16.639Z,98609.00
2023-05-10T03:45:50.827Z,98603.00
2023-05-10T03:47:23.984Z,98607.00
2023-05-10T03:48:56.178Z,98613.00
2023-05-10T03:50:29.576Z,98604.00
2023-05-10T03:52:01.948Z,98605.00
2023-05-10T03:53:35.109Z,98609.00
2023-05-10T03:55:09.315Z,98623.00
2023-05-10T03:56:42.608Z,98621.00
2023-05-10T03:58:16.159Z,98621.00
2023-05-10T03:59:48.909Z,98623.00
2023-05-10T04:01:22.005Z,98619.00
2023-05-10T04:02:55.177Z,98613.00
2023-05-10T04:04:28.241Z,98621.00
2023-05-10T04:06:02.556Z,98626.00
2023-05-10T04:07:35.860Z,98624.00
2023-05-10T04:09:09.569Z,98625.00
2023-05-10T04:10:44.338Z,98630.00
2023-05-10T04:12:17.421Z,98625.00
2023-05-10T04:13:49.630Z,98629.00
2023-05-10T04:15:23.060Z,98621.00
2023-05-10T04:16:56.256Z,98617.00
2023-05-10T04:18:29.500Z,98616.00
2023-05-10T04:20:02.855Z,98618.00
2023-05-10T04:21:36.556Z,98618.00
2023-05-10T04:23:09.696Z,98621.00
2023-05-10T04:24:42.796Z,98618.00
2023-05-10T04:26:17.287Z,98616.00
2023-05-10T04:27:50.389Z,98624.00
2023-05-10T04:29:22.654Z,98620.00
2023-05-10T04:31:02.062Z,98617.00
2023-05-10T04:32:35.397Z,98623.00
2023-05-10T04:34:08.539Z,98632.00
2023-05-10T04:35:41.669Z,98628.00
2023-05-10T04:37:14.711Z,98627.00
2023-05-10T04:38:47.797Z,98625.00
2023-05-10T04:40:20.969Z,98631.00
2023-05-10T04:41:55.578Z,98632.00
2023-05-10T04:43:28.673Z,98628.00
2023-05-10T04:45:02.037Z,98641.00
2023-05-10T04:46:34.295Z,98633.00
2023-05-10T04:48:08.384Z,98644.00
2023-05-10T04:49:41.444Z,98648.00
2023-05-10T04:51:14.611Z,98645.00
2023-05-10T04:52:48.123Z,98642.00
2023-05-10T04:54:21.408Z,98650.00
2023-05-10T04:55:54.498Z,98646.00
2023-05-10T04:57:29.197Z,98656.00
2023-05-10T04:59:02.590Z,98651.00
2023-05-10T05:00:36.136Z,98656.00
2023-05-10T05:02:09.337Z,98661.00
2023-05-10T05:03:43.487Z,98656.00
2023-05-10T05:05:16.948Z,98656.00
2023-05-10T05:06:52.973Z,98668.00
2023-05-10T05:08:26.934Z,98663.00
2023-05-10T05:10:00.247Z,98663.00
2023-05-10T05:11:33.360Z,98656.00
2023-05-10T05:13:07.960Z,98663.00
2023-05-10T05:14:41.476Z,98662.00
2023-05-10T05:16:13.745Z,98664.00
2023-05-10T05:17:46.935Z,98661.00
2023-05-10T05:19:20.131Z,98661.00
2023-05-10T05:20:53.327Z,98656.00
2023-05-10T05:22:28.644Z,98660.00
2023-05-10T05:24:01.813Z,98666.00
2023-05-10T05:25:34.938Z,98663.00
2023-05-10T05:27:08.316Z,98680.00
2023-05-10T05:28:42.978Z,98664.00
2023-05-10T05:30:16.180Z,98669.00
2023-05-10T05:31:49.517Z,98672.00
2023-05-10T05:33:22.598Z,98672.00
2023-05-10T05:35:12.355Z,98680.00
2023-05-10T05:36:45.484Z,98682.00
2023-05-10T05:38:18.829Z,98683.00
2023-05-10T05:39:51.239Z,98680.00
2023-05-10T05:41:25.188Z,98679.00
2023-05-10T05:42:58.614Z,98679.00
2023-05-10T05:44:33.134Z,98678.00
2023-05-10T05:46:06.784Z,98685.00
2023-05-10T05:47:39.944Z,98681.00
2023-05-10T05:49:13.170Z,98683.00
2023-05-10T05:50:46.495Z,98685.00
2023-05-10T05:52:19.582Z,98682.00
2023-05-10T05:53:52.679Z,98682.00
2023-05-10T05:55:26.733Z,98683.00
2023-05-10T05:57:01.501Z,98678.00
2023-05-10T05:58:34.784Z,98682.00
2023-05-10T06:00:11.192Z,98685.00
2023-05-10T06:01:47.255Z,98683.00
2023-05-10T06:03:20.900Z,98693.00
2023-05-10T06:04:54.135Z,98698.00
2023-05-10T06:06:27.809Z,98704.00
2023-05-10T06:08:02.240Z,98701.00
2023-05-10T06:09:35.446Z,98709.00
2023-05-10T06:11:08.547Z,98700.00
2023-05-10T06:12:42.003Z,98703.00
2023-05-10T06:14:15.044Z,98705.00
2023-05-10T06:15:49.470Z,98713.00
2023-05-10T06:17:22.613Z,98709.00
2023-05-10T06:18:56.259Z,98712.00
2023-05-10T06:20:29.397Z,98706.00
2023-05-10T06:22:02.587Z,98716.00
2023-05-10T06:23:36.615Z,98712.00
2023-05-10T06:25:11.276Z,98714.00
2023-05-10T06:26:44.358Z,98713.00
2023-05-10T06:28:17.543Z,98719.00
2023-05-10T06:29:54.367Z,98710.00
2023-05-10T06:31:34.020Z,98715.00
2023-05-10T06:33:07.102Z,98717.00
2023-05-10T06:34:40.467Z,98711.00
2023-05-10T06:36:14.253Z,98720.00
2023-05-10T06:37:47.587Z,98719.00
2023-05-10T06:39:20.671Z,98712.00
2023-05-10T06:40:54.032Z,98719.00
2023-05-10T06:42:28.128Z,98719.00
2023-05-10T06:44:01.479Z,98712.00
2023-05-10T06:45:34.607Z,98715.00
2023-05-10T06:47:09.198Z,98723.00
2023-05-10T06:48:42.430Z,98727.00
2023-05-10T06:50:16.244Z,98719.00
2023-05-10T06:51:49.411Z,98730.00
2023-05-10T06:53:22.838Z,98731.00
2023-05-10T06:54:55.890Z,98727.00
2023-05-10T06:56:28.997Z,98736.00
2023-05-10T06:58:02.097Z,98737.00
2023-05-10T06:59:35.316Z,98734.00
2023-05-10T07:01:08.768Z,98733.00
2023-05-10T07:02:43.518Z,98740.00
2023-05-10T07:04:16.916Z,98738.00
2023-05-10T07:05:50.067Z,98740.00
2023-05-10T07:07:23.400Z,98743.00
2023-05-10T07:08:56.631Z,98750.00
2023-05-10T07:10:30.686Z,98739.00
2023-05-10T07:12:04.091Z,98741.00
2023-05-10T07:13:39.913Z,98744.00
2023-05-10T07:15:13.267Z,98730.00
2023-05-10T07:16:46.463Z,98742.00
2023-05-10T07:18:21.011Z,98743.00
2023-05-10T07:19:54.148Z,98743.00
2023-05-10T07:21:29.610Z,98740.00
2023-05-10T07:23:03.055Z,98748.00
2023-05-10T07:24:36.307Z,98748.00
2023-05-10T07:26:10.384Z,98740.00
2023-05-10T07:27:43.602Z,98746.00
2023-05-10T07:29:16.753Z,98743.00
2023-05-10T07:30:49.975Z,98740.00
2023-05-10T07:32:23.470Z,98739.00
2023-05-10T07:33:58.402Z,98743.00
2023-05-10T07:35:31.848Z,98739.00
2023-05-10T07:37:05.094Z,98741.00
2023-05-10T07:38:40.813Z,98736.00
2023-05-10T07:40:14.337Z,98741.00
2023-05-10T07:41:47.360Z,98747.00
2023-05-10T07:43:20.796Z,98735.00
2023-05-10T07:44:54.002Z,98742.00
2023-05-10T07:46:27.418Z,98745.00
2023-05-10T07:48:00.928Z,98742.00
2023-05-10T07:49:36.519Z,98747.00
2023-05-10T07:51:10.380Z,98751.00
2023-05-10T07:52:43.692Z,98751.00
2023-05-10T07:54:16.774Z,98753.00
2023-05-10T07:55:52.674Z,98760.00
2023-05-10T07:57:25.813Z,98769.00
2023-05-10T07:58:59.901Z,98762.00
2023-05-10T08:00:33.642Z,98765.00
2023-05-10T08:02:06.790Z,98769.00
2023-05-10T08:03:39.993Z,98771.00
2023-05-10T08:05:15.789Z,98772.00
2023-05-10T08:06:49.328Z,98775.00
2023-05-10T08:08:23.694Z,98771.00
2023-05-10T08:09:57.688Z,98774.00
2023-05-10T08:11:31.162Z,98764.00
2023-05-10T08:13:04.461Z,98779.00
2023-05-10T08:14:38.376Z,98776.00
2023-05-10T08:16:11.642Z,98775.00
2023-05-10T08:17:44.968Z,98769.00
2023-05-10T08:19:19.919Z,98782.00
2023-05-10T08:20:54.494Z,98779.00
2023-05-10T08:22:27.568Z,98786.00
2023-05-10T08:24:00.664Z,98785.00
2023-05-10T08:25:34.225Z,98782.00
2023-05-10T08:27:07.495Z,98775.00
2023-05-10T08:28:40.853Z,98783.00
2023-05-10T08:30:14.826Z,98788.00
2023-05-10T08:31:47.931Z,98787.00
2023-05-10T08:33:21.439Z,98793.00
2023-05-10T08:34:54.643Z,98786.00
2023-05-10T08:36:29.244Z,98785.00
2023-05-10T08:38:02.410Z,98787.00
2023-05-10T08:39:37.004Z,98779.00
2023-05-10T08:41:11.539Z,98777.00
2023-05-10T08:42:52.574Z,98792.00
2023-05-10T08:44:26.350Z,98783.00
2023-05-10T08:46:03.659Z,98783.00
2023-05-10T08:47:39.122Z,98787.00
2023-05-10T08:49:18.552Z,98787.00
2023-05-10T08:50:55.794Z,98794.00
2023-05-10T08:52:32.636Z,98795.00
2023-05-10T08:54:06.929Z,98792.00
2023-05-10T08:55:42.926Z,98786.00
2023-05-10T08:57:16.123Z,98792.00
2023-05-10T08:58:50.640Z,98796.00
2023-05-10T09:00:25.090Z,98799.00
2023-05-10T09:02:00.738Z,98801.00
2023-05-10T09:03:34.263Z,98803.00
2023-05-10T09:05:09.950Z,98803.00
2023-05-10T09:06:43.590Z,98793.00
2023-05-10T09:08:19.256Z,98810.00
2023-05-10T09:09:53.532Z,98806.00
2023-05-10T09:11:26.990Z,98813.00
2023-05-10T09:13:00.832Z,98813.00
2023-05-10T09:14:37.730Z,98814.00
2023-05-10T09:16:21.174Z,98819.00
2023-05-10T09:17:57.139Z,98815.00
2023-05-10T09:19:30.735Z,98811.00
2023-05-10T09:21:04.267Z,98814.00
2023-05-10T09:22:38.589Z,98810.00
2023-05-10T09:24:14.070Z,98807.00
2023-05-10T09:25:47.177Z,98811.00
2023-05-10T09:27:29.248Z,98812.00
2023-05-10T09:29:03.669Z,98818.00
2023-05-10T09:30:37.862Z,98814.00
2023-05-10T09:32:11.369Z,98818.00
2023-05-10T09:33:46.760Z,98817.00
2023-05-10T09:35:22.898Z,98818.00
2023-05-10T09:36:58.903Z,98813.00
2023-05-10T09:38:48.749Z,98815.00
2023-05-10T09:40:24.932Z,98813.00
2023-05-10T09:41:58.557Z,98824.00
2023-05-10T09:43:40.192Z,98826.00
2023-05-10T09:45:13.465Z,98825.00
2023-05-10T09:46:53.538Z,98822.00
2023-05-10T09:48:27.494Z,98824.00
2023-05-10T09:50:04.335Z,98829.00
2023-05-10T09:51:38.187Z,98827.00
2023-05-10T09:53:11.678Z,98822.00
2023-05-10T09:54:54.902Z,98826.00
2023-05-10T09:56:41.043Z,98825.00
2023-05-10T09:58:15.700Z,98826.00
2023-05-10T09:59:50.132Z,98826.00
2023-05-10T10:01:23.419Z,98825.00
2023-05-10T10:02:59.094Z,98826.00
2023-05-10T10:04:32.649Z,98829.00
2023-05-10T10:06:18.687Z,98825.00
2023-05-10T10:08:01.626Z,98829.00
2023-05-10T10:09:36.818Z,98828.00
2023-05-10T10:11:10.304Z,98824.00
2023-05-10T10:12:46.086Z,98824.00
2023-05-10T10:14:20.870Z,98829.00
2023-05-10T10:15:56.381Z,98823.00
2023-05-10T10:17:30.452Z,98827.00
2023-05-10T10:19:03.971Z,98826.00
2023-05-10T10:20:40.002Z,98828.00
2023-05-10T10:22:13.399Z,98826.00
2023-05-10T10:23:46.505Z,98823.00
2023-05-10T10:25:22.791Z,98835.00
2023-05-10T10:27:05.191Z,98841.00
2023-05-10T10:28:53.761Z,98851.00
2023-05-10T10:30:33.486Z,98847.00
2023-05-10T10:32:20.948Z,98852.00
2023-05-10T10:34:03.835Z,98854.00
2023-05-10T10:35:38.552Z,98853.00
2023-05-10T10:37:11.496Z,98844.00
2023-05-10T10:39:05.066Z,98850.00
2023-05-10T10:40:38.968Z,98842.00
2023-05-10T10:42:12.172Z,98851.00
2023-05-10T10:43:46.751Z,98852.00
2023-05-10T10:45:20.141Z,98848.00
2023-05-10T10:47:12.227Z,98845.00
2023-05-10T10:48:50.638Z,98841.00
2023-05-10T10:50:23.767Z,98852.00
2023-05-10T10:52:29.077Z,98836.00
2023-05-10T10:54:11.601Z,98845.00
2023-05-10T10:55:49.643Z,98838.00
2023-05-10T10:57:23.538Z,98844.00
2023-05-10T10:59:02.612Z,98848.00
2023-05-10T11:00:39.337Z,98846.00
2023-05-10T11:02:32.670Z,98848.00
2023-05-10T11:04:22.019Z,98856.00
2023-05-10T11:06:02.385Z,98853.00
2023-05-10T11:07:35.919Z,98852.00
2023-05-10T11:09:11.062Z,98863.00
2023-05-10T11:11:05.308Z,98873.00
2023-05-10T11:12:54.263Z,98874.00
2023-05-10T11:14:29.025Z,98881.00
2023-05-10T11:16:14.781Z,98889.00
2023-05-10T11:17:52.867Z,98889.00
2023-05-10T11:19:30.406Z,98878.00
2023-05-10T11:21:06.063Z,98883.00
2023-05-10T11:22:53.066Z,98880.00
2023-05-10T11:24:30.383Z,98886.00
2023-05-10T11:26:03.523Z,98886.00
2023-05-10T11:27:39.541Z,98886.00
2023-05-10T11:29:14.477Z,98901.00
2023-05-10T11:30:49.500Z,98891.00
2023-05-10T11:32:23.192Z,98888.00
2023-05-10T11:33:58.395Z,98893.00
2023-05-10T11:35:31.505Z,98892.00
2023-05-10T11:37:04.823Z,98897.00
2023-05-10T11:38:37.952Z,98883.00
2023-05-10T11:40:12.624Z,98886.00
2023-05-10T11:41:50.301Z,98891.00
2023-05-10T11:43:29.135Z,98896.00
2023-05-10T11:45:03.215Z,98888.00
2023-05-10T11:46:38.492Z,98890.00
2023-05-10T11:48:11.987Z,98892.00
2023-05-10T11:49:46.422Z,98898.00
2023-05-10T11:51:23.868Z,98888.00
2023-05-10T11:52:59.484Z,98889.00
2023-05-10T11:54:32.974Z,98888.00
2023-05-10T11:56:08.020Z,98900.00
2023-05-10T11:57:42.692Z,98894.00
2023-05-10T11:59:16.854Z,98904.00
2023-05-10T12:00:50.360Z,98894.00
2023-05-10T12:02:25.129Z,98895.00
2023-05-10T12:04:01.382Z,98901.00
2023-05-10T12:05:35.312Z,98908.00
2023-05-10T12:07:08.598Z,98902.00
2023-05-10T12:08:48.040Z,98906.00
2023-05-10T12:10:29.325Z,98900.00
2023-05-10T12:12:04.371Z,98909.00
2023-05-10T12:13:41.708Z,98912.00
2023-05-10T12:15:20.673Z,98901.00
2023-05-10T12:16:53.993Z,98906.00
2023-05-10T12:18:28.640Z,98906.00
2023-05-10T12:20:16.005Z,98910.00
2023-05-10T12:21:49.764Z,98909.00
2023-05-10T12:23:23.199Z,98910.00
2023-05-10T12:24:55.431Z,98911.00
2023-05-10T12:26:30.688Z,98904.00
2023-05-10T12:28:07.862Z,98915.00
2023-05-10T12:29:45.737Z,98912.00
2023-05-10T12:31:19.438Z,98912.00
2023-05-10T12:32:52.579Z,98919.00
2023-05-10T12:34:28.817Z,98918.00
2023-05-10T12:36:01.976Z,98923.00
2023-05-10T12:37:37.018Z,98922.00
2023-05-10T12:39:10.296Z,98920.00
2023-05-10T12:40:43.356Z,98915.00
2023-05-10T12:42:16.479Z,98923.00
2023-05-10T12:43:49.519Z,98924.00
2023-05-10T12:45:23.000Z,98923.00
2023-05-10T12:46:56.089Z,98926.00
2023-05-10T12:48:29.664Z,98922.00
2023-05-10T12:50:05.380Z,98925.00
2023-05-10T12:51:55.616Z,98923.00
2023-05-10T12:53:28.904Z,98929.00
2023-05-10T12:55:03.973Z,98925.00
2023-05-10T12:56:38.229Z,98921.00
2023-05-10T12:58:15.720Z,98928.00
2023-05-10T12:59:51.489Z,98924.00
2023-05-10T13:01:24.703Z,98915.00
2023-05-10T13:02:57.949Z,98923.00
2023-05-10T13:04:31.132Z,98924.00
2023-05-10T13:06:06.512Z,98929.00
2023-05-10T13:07:39.619Z,98927.00
2023-05-10T13:09:12.724Z,98934.00
2023-05-10T13:10:46.421Z,98932.00
2023-05-10T13:12:19.723Z,98940.00
2023-05-10T13:13:53.359Z,98937.00
2023-05-10T13:15:27.543Z,98933.00
2023-05-10T13:17:00.785Z,98944.00
2023-05-10T13:18:33.970Z,98935.00
2023-05-10T13:20:08.747Z,98930.00
2023-05-10T13:21:43.032Z,98928.00
2023-05-10T13:23:16.122Z,98930.00
2023-05-10T13:24:49.281Z,98923.00
2023-05-10T13:26:22.366Z,98930.00
2023-05-10T13:27:55.664Z,98931.00
2023-05-10T13:29:28.890Z,98930.00
2023-05-10T13:31:02.090Z,98930.00
2023-05-10T13:32:36.548Z,98931.00
2023-05-10T13:34:09.684Z,98935.00
2023-05-10T13:35:42.813Z,98936.00
2023-05-10T13:37:17.197Z,98942.00
2023-05-10T13:38:50.509Z,98943.00
2023-05-10T13:40:23.614Z,98939.00
2023-05-10T13:41:57.335Z,98936.00
2023-05-10T13:43:31.622Z,98939.00
2023-05-10T13:45:05.506Z,98938.00
2023-05-10T13:46:39.725Z,98942.00
2023-05-10T13:48:13.092Z,98945.00
2023-05-10T13:49:46.371Z,98948.00
2023-05-10T13:51:19.717Z,98949.00
2023-05-10T13:52:54.377Z,98948.00
2023-05-10T13:54:30.323Z,98942.00
2023-05-10T13:56:04.106Z,98937.00
2023-05-10T13:57:37.841Z,98948.00
2023-05-10T13:59:11.027Z,98945.00
2023-05-10T14:00:44.368Z,98939.00
2023-05-10T14:02:17.456Z,98943.00
2023-05-10T14:03:50.696Z,98945.00
2023-05-10T14:05:26.178Z,98948.00
2023-05-10T14:06:59.802Z,98939.00
2023-05-10T14:08:34.196Z,98944.00
2023-05-10T14:10:08.305Z,98944.00
2023-05-10T14:11:44.076Z,98937.00
2023-05-10T14:13:17.305Z,98937.00
2023-05-10T14:14:50.424Z,98934.00
2023-05-10T14:16:23.823Z,98934.00
2023-05-10T14:17:57.204Z,98934.00
2023-05-10T14:19:33.291Z,98935.00
2023-05-10T14:21:06.453Z,98933.00
2023-05-10T14:22:39.654Z,98930.00
2023-05-10T14:24:14.255Z,98934.00
2023-05-10T14:25:47.408Z,98929.00
2023-05-10T14:27:20.535Z,98931.00
2023-05-10T14:28:53.788Z,98931.00
2023-05-10T14:30:26.946Z,98932.00
2023-05-10T14:32:00.297Z,98920.00
2023-05-10T14:33:33.367Z,98919.00
2023-05-10T14:35:09.019Z,98933.00
2023-05-10T14:36:43.895Z,98929.00
2023-05-10T14:38:17.249Z,98930.00
2023-05-10T14:39:52.003Z,98923.00
2023-05-10T14:41:25.646Z,98918.00
2023-05-10T14:42:58.784Z,98919.00
2023-05-10T14:44:32.441Z,98925.00
2023-05-10T14:46:05.679Z,98927.00
2023-05-10T14:47:38.873Z,98928.00
2023-05-10T14:49:11.989Z,98920.00
2023-05-10T14:50:45.213Z,98927.00
2023-05-10T14:52:18.373Z,98926.00
2023-05-10T14:53:51.500Z,98925.00
2023-05-10T14:55:25.128Z,98921.00
2023-05-10T14:56:58.250Z,98922.00
2023-05-10T14:58:33.854Z,98922.00
2023-05-10T15:00:09.004Z,98933.00
2023-05-10T15:01:42.995Z,98928.00
2023-05-10T15:03:16.973Z,98918.00
2023-05-10T15:04:50.633Z,98932.00
2023-05-10T15:06:32.205Z,98933.00
2023-05-10T15:08:05.787Z,98922.00
2023-05-10T15:09:38.908Z,98926.00
2023-05-10T15:11:13.350Z,98927.00
2023-05-10T15:12:46.493Z,98926.00
2023-05-10T15:14:19.506Z,98932.00
2023-05-10T15:15:52.892Z,98926.00
2023-05-10T15:17:26.088Z,98924.00
2023-05-10T15:18:59.487Z,98922.00
2023-05-10T15:20:32.718Z,98930.00
2023-05-10T15:22:07.112Z,98928.00
2023-05-10T15:23:40.200Z,98923.00
2023-05-10T15:25:13.408Z,98934.00
2023-05-10T15:26:47.844Z,98923.00
2023-05-10T15:28:21.152Z,98927.00
2023-05-10T15:29:54.326Z,98922.00
2023-05-10T15:31:28.266Z,98921.00
2023-05-10T15:33:01.358Z,98929.00
2023-05-10T15:34:35.796Z,98931.00
2023-05-10T15:36:10.255Z,98935.00
2023-05-10T15:37:43.526Z,98927.00
2023-05-10T15:39:16.549Z,98930.00
2023-05-10T15:40:49.745Z,98936.00
2023-05-10T15:42:24.126Z,98933.00
2023-05-10T15:43:57.493Z,98929.00
2023-05-10T15:45:30.864Z,98930.00
2023-05-10T15:47:04.481Z,98933.00
2023-05-10T15:48:41.083Z,98933.00
2023-05-10T15:50:14.229Z,98935.00
2023-05-10T15:51:47.833Z,98942.00
2023-05-10T15:53:20.977Z,98941.00
2023-05-10T15:54:54.143Z,98932.00
2023-05-10T15:56:27.518Z,98940.00
2023-05-10T15:58:02.107Z,98938.00
2023-05-10T15:59:35.652Z,98942.00
2023-05-10T16:01:09.183Z,98940.00
2023-05-10T16:02:43.546Z,98940.00
2023-05-10T16:04:16.692Z,98951.00
2023-05-10T16:05:50.002Z,98947.00
2023-05-10T16:07:23.174Z,98940.00
2023-05-10T16:08:56.339Z,98939.00
2023-05-10T16:10:33.024Z,98944.00
2023-05-10T16:12:06.189Z,98950.00
2023-05-10T16:13:40.821Z,98949.00
2023-05-10T16:15:13.825Z,98956.00
2023-05-10T16:16:47.586Z,98950.00
2023-05-10T16:18:21.421Z,98952.00
2023-05-10T16:19:54.806Z,98954.00
2023-05-10T16:21:28.634Z,98949.00
2023-05-10T16:23:06.205Z,98951.00
2023-05-10T16:24:39.417Z,98954.00
2023-05-10T16:26:12.572Z,98955.00
2023-05-10T16:27:45.684Z,98944.00
2023-05-10T16:29:20.173Z,98958.00
2023-05-10T16:30:53.312Z,98953.00
2023-05-10T16:32:26.660Z,98956.00
2023-05-10T16:33:59.894Z,98953.00
2023-05-10T16:35:33.025Z,98958.00
2023-05-10T16:37:06.297Z,98956.00
2023-05-10T16:38:39.659Z,98967.00
2023-05-10T16:40:13.427Z,98961.00
2023-05-10T16:41:46.546Z,98959.00
2023-05-10T16:43:20.020Z,98957.00
2023-05-10T16:44:55.428Z,98952.00
2023-05-10T16:46:28.605Z,98952.00
2023-05-10T16:48:01.862Z,98954.00
2023-05-10T16:49:37.187Z,98961.00
2023-05-10T16:51:10.510Z,98963.00
2023-05-10T16:52:44.445Z,98955.00
2023-05-10T16:54:18.464Z,98961.00
2023-05-10T16:55:51.659Z,98968.00
2023-05-10T16:57:24.948Z,98962.00
2023-05-10T16:58:58.556Z,98964.00
2023-05-10T17:00:33.081Z,98964.00
2023-05-10T17:02:06.417Z,98957.00
2023-05-10T17:03:39.861Z,98965.00
2023-05-10T17:05:13.459Z,98962.00
2023-05-10T17:06:46.678Z,98966.00
2023-05-10T17:08:20.074Z,98971.00
2023-05-10T17:09:53.242Z,98963.00
2023-05-10T17:11:27.400Z,98969.00
2023-05-10T17:13:00.440Z,98969.00
2023-05-10T17:14:33.568Z,98973.00
2023-05-10T17:16:08.235Z,98969.00
2023-05-10T17:17:41.734Z,98983.00
2023-05-10T17:19:14.912Z,98978.00
2023-05-10T17:20:48.068Z,98991.00
2023-05-10T17:22:21.197Z,98984.00
2023-05-10T17:23:54.363Z,98992.00
2023-05-10T17:25:26.572Z,98996.00
2023-05-10T17:27:00.510Z,98996.00
2023-05-10T17:28:33.760Z,98998.00
2023-05-10T17:30:09.048Z,99003.00
2023-05-10T17:31:43.670Z,99003.00
2023-05-10T17:33:16.809Z,99001.00
2023-05-10T17:34:49.960Z,98998.00
2023-05-10T17:36:23.306Z,99013.00
2023-05-10T17:37:56.608Z,99006.00
2023-05-10T17:39:29.932Z,99009.00
2023-05-10T17:41:03.107Z,99014.00
2023-05-10T17:42:36.255Z,99006.00
2023-05-10T17:44:09.415Z,99010.00
2023-05-10T17:45:44.001Z,99012.00
2023-05-10T17:47:18.952Z,99010.00
2023-05-10T17:48:52.139Z,99021.00
2023-05-10T17:50:25.278Z,99011.00
2023-05-10T17:51:58.516Z,99015.00
2023-05-10T17:53:32.247Z,99016.00
2023-05-10T17:55:06.310Z,99016.00
2023-05-10T17:56:40.152Z,99017.00
2023-05-10T17:58:13.763Z,99012.00
2023-05-10T17:59:46.785Z,99021.00
2023-05-10T18:01:19.992Z,99015.00
2023-05-10T18:02:54.633Z,99015.00
2023-05-10T18:04:27.723Z,99021.00
2023-05-10T18:06:01.179Z,99025.00
2023-05-10T18:07:35.776Z,99028.00
2023-05-10T18:09:09.502Z,99022.00
2023-05-10T18:10:42.753Z,99027.00
2023-05-10T18:12:15.917Z,99031.00
2023-05-10T18:13:49.002Z,99033.00
2023-05-10T18:15:22.041Z,99039.00
2023-05-10T18:16:55.465Z,99038.00
2023-05-10T18:18:30.107Z,99038.00
2023-05-10T18:20:03.431Z,99038.00
2023-05-10T18:21:38.396Z,99048.00
2023-05-10T18:23:11.559Z,99041.00
2023-05-10T18:24:44.638Z,99052.00
2023-05-10T18:26:18.072Z,99042.00
2023-05-10T18:27:51.201Z,99052.00
2023-05-10T18:29:24.394Z,99051.00
2023-05-10T18:30:57.519Z,99058.00
2023-05-10T18:32:31.235Z,99059.00
2023-05-10T18:34:06.225Z,99044.00
2023-05-10T18:35:40.896Z,99055.00
2023-05-10T18:37:14.056Z,99060.00